Time;durP1;ratioP1;P1;durP2;ratioP2;P2;SDS_P1;SDS_P2;PMS_P1;PMS_P2;Temp;Humidity;BMP_temperature;BMP_pressure;BME280_temperature;BME280_humidity;BME280_pressure;Samples;Min_cycle;Max_cycle;Signal;HPM_P1;HPM_P2
2023/09/25 00:01:57;;;;;;;5.90;1.40;;;21.10;99.90;;;;;;5033406;28;20436;-72
2023/09/25 00:04:25;;;;;;;8.23;1.83;;;21.10;99.90;;;;;;5032662;28;20087;-73
2023/09/25 00:06:51;;;;;;;5.75;1.50;;;21.20;99.90;;;;;;5032524;28;20033;-72
2023/09/25 00:09:18;;;;;;;8.80;1.70;;;21.20;99.90;;;;;;5032722;28;20025;-72
2023/09/25 00:11:44;;;;;;;3.65;1.20;;;21.20;99.90;;;;;;5032571;28;20343;-72
2023/09/25 00:14:11;;;;;;;8.88;1.65;;;21.20;99.90;;;;;;5032637;28;20402;-72
2023/09/25 00:16:38;;;;;;;9.00;1.27;;;21.20;99.90;;;;;;5031509;28;20442;-71
2023/09/25 00:19:04;;;;;;;7.05;1.27;;;21.00;99.90;;;;;;5030841;28;20025;-73
2023/09/25 00:21:31;;;;;;;10.30;1.38;;;21.00;99.90;;;;;;5032403;28;20033;-73
2023/09/25 00:23:57;;;;;;;9.02;1.60;;;20.90;99.90;;;;;;5032380;28;20014;-73
2023/09/25 00:26:23;;;;;;;6.88;1.40;;;20.90;99.90;;;;;;5032177;28;20357;-72
2023/09/25 00:28:49;;;;;;;8.23;1.30;;;20.90;99.90;;;;;;5031934;28;20029;-72
2023/09/25 00:31:16;;;;;;;5.68;1.23;;;21.00;99.90;;;;;;5032475;28;20029;-73
2023/09/25 00:33:42;;;;;;;5.53;1.30;;;21.00;99.90;;;;;;5032022;28;20056;-73
2023/09/25 00:36:08;;;;;;;10.63;1.40;;;21.00;99.90;;;;;;5030549;28;20030;-69
2023/09/25 00:38:34;;;;;;;8.10;1.40;;;20.90;99.90;;;;;;5031832;28;20128;-74
2023/09/25 00:41:00;;;;;;;7.20;1.33;;;20.90;99.90;;;;;;5030196;28;20037;-71
2023/09/25 00:43:26;;;;;;;11.10;1.50;;;20.90;99.90;;;;;;5031847;28;20033;-72
2023/09/25 00:45:53;;;;;;;4.43;1.35;;;20.90;99.90;;;;;;5031959;28;20076;-74
2023/09/25 00:48:29;;;;;;;6.97;1.50;;;20.90;99.90;;;;;;5031417;28;20107;-73
2023/09/25 00:50:57;;;;;;;;;;;21.00;99.90;;;;;;5032421;28;20518;-71
2023/09/25 00:53:28;;;;;;;7.70;1.35;;;21.00;99.90;;;;;;5031369;28;19905;-72
2023/09/25 00:55:55;;;;;;;7.45;1.63;;;20.80;99.90;;;;;;5031799;28;20033;-72
2023/09/25 00:58:21;;;;;;;;;;;20.70;99.90;;;;;;5032385;28;20362;-72
2023/09/25 01:00:47;;;;;;;8.75;1.58;;;20.80;99.90;;;;;;5031917;28;19909;-73
2023/09/25 01:03:13;;;;;;;5.85;1.50;;;20.70;99.90;;;;;;5031638;28;20021;-73
2023/09/25 01:05:40;;;;;;;5.82;1.15;;;20.80;99.90;;;;;;5031730;28;20127;-73
2023/09/25 01:08:07;;;;;;;6.30;1.30;;;20.90;99.90;;;;;;5031415;28;20033;-73
2023/09/25 01:10:33;;;;;;;8.25;1.60;;;21.00;99.90;;;;;;5031643;28;20532;-73
2023/09/25 01:13:01;;;;;;;11.10;1.50;;;21.00;99.90;;;;;;5029983;28;20029;-73
2023/09/25 01:15:27;;;;;;;8.32;1.52;;;21.00;99.90;;;;;;5031429;28;20107;-73
2023/09/25 01:17:53;;;;;;;4.65;1.20;;;21.00;99.90;;;;;;5031646;28;20061;-73
2023/09/25 01:20:22;;;;;;;6.65;1.33;;;20.90;99.90;;;;;;5031365;28;20108;-74
2023/09/25 01:22:49;;;;;;;8.82;1.55;;;20.90;99.90;;;;;;5029737;28;20029;-72
2023/09/25 01:25:18;;;;;;;6.00;1.10;;;20.90;99.90;;;;;;5029832;28;20076;-72
2023/09/25 01:27:46;;;;;;;6.13;1.38;;;20.80;99.90;;;;;;5031277;28;20083;-72
2023/09/25 01:30:14;;;;;;;9.02;1.40;;;20.70;99.90;;;;;;5031077;28;20488;-73
2023/09/25 01:32:43;;;;;;;7.60;1.35;;;20.60;99.90;;;;;;5029538;28;20084;-72
2023/09/25 01:35:23;;;;;;;7.43;1.23;;;20.60;99.90;;;;;;5031195;28;20080;-72
2023/09/25 01:37:50;;;;;;;6.32;1.33;;;20.40;99.90;;;;;;5030786;28;20126;-72
2023/09/25 01:40:19;;;;;;;11.32;1.55;;;20.60;99.90;;;;;;5031317;28;20083;-72
2023/09/25 01:42:46;;;;;;;10.38;1.60;;;20.60;99.90;;;;;;5031396;28;20124;-71
2023/09/25 01:45:16;;;;;;;6.35;1.50;;;20.50;99.90;;;;;;5031329;28;20018;-71
2023/09/25 01:47:49;;;;;;;8.15;1.40;;;20.50;99.90;;;;;;5030753;28;20056;-73
2023/09/25 01:50:17;;;;;;;6.55;1.60;;;20.40;99.90;;;;;;5031068;28;20025;-72
2023/09/25 01:52:43;;;;;;;8.00;1.40;;;20.50;99.90;;;;;;5030863;28;20033;-72
2023/09/25 01:55:09;;;;;;;7.15;1.65;;;20.50;99.90;;;;;;5030804;28;20025;-72
2023/09/25 01:57:35;;;;;;;8.50;1.60;;;20.60;99.90;;;;;;5031051;28;20025;-72
2023/09/25 02:00:07;;;;;;;11.18;2.42;;;20.40;99.90;;;;;;5030804;28;20041;-72
2023/09/25 02:02:33;;;;;;;7.75;1.90;;;20.30;99.90;;;;;;5031013;28;20029;-74
2023/09/25 02:05:00;;;;;;;7.72;1.77;;;20.30;99.90;;;;;;5030662;28;20033;-72
2023/09/25 02:07:26;;;;;;;8.90;1.63;;;20.20;99.90;;;;;;5030487;28;20381;-72
2023/09/25 02:09:52;;;;;;;8.77;1.80;;;20.20;99.90;;;;;;5029242;28;20426;-72
2023/09/25 02:12:18;;;;;;;4.28;1.23;;;20.30;99.90;;;;;;5029303;28;20367;-72
2023/09/25 02:14:44;;;;;;;9.00;1.52;;;20.30;99.90;;;;;;5030615;28;20474;-72
2023/09/25 02:17:10;;;;;;;4.97;1.35;;;20.20;99.90;;;;;;5030502;28;20449;-72
2023/09/25 02:19:37;;;;;;;8.25;1.55;;;20.30;99.90;;;;;;5030969;28;20413;-72
2023/09/25 02:22:06;;;;;;;8.90;1.58;;;20.30;99.90;;;;;;5030357;28;20039;-72
2023/09/25 02:24:36;;;;;;;7.80;1.40;;;20.30;99.90;;;;;;5028741;28;20119;-72
2023/09/25 02:27:03;;;;;;;6.53;1.23;;;20.20;99.90;;;;;;5030863;28;20064;-73
2023/09/25 02:29:29;;;;;;;4.90;1.30;;;20.00;99.90;;;;;;5030673;28;20052;-72
2023/09/25 02:31:56;;;;;;;11.13;1.38;;;19.80;99.90;;;;;;5028892;28;20096;-71
2023/09/25 02:34:22;;;;;;;6.97;1.60;;;19.60;99.90;;;;;;5030092;28;20026;-72
2023/09/25 02:36:49;;;;;;;10.35;1.63;;;19.50;99.90;;;;;;5030060;28;20033;-72
2023/09/25 02:39:15;;;;;;;7.57;1.88;;;19.50;99.90;;;;;;5032350;28;20128;-73
2023/09/25 02:41:41;;;;;;;5.68;1.48;;;19.50;99.90;;;;;;5033816;28;20095;-71
2023/09/25 02:44:07;;;;;;;10.77;1.58;;;19.50;99.90;;;;;;5032567;28;20438;-73
2023/09/25 02:46:34;;;;;;;9.38;2.03;;;19.40;99.90;;;;;;5032473;28;20029;-72
2023/09/25 02:49:00;;;;;;;8.15;1.33;;;19.50;99.90;;;;;;5032220;28;20103;-72
2023/09/25 02:51:26;;;;;;;8.95;1.65;;;19.50;99.90;;;;;;5032164;28;20052;-72
2023/09/25 02:53:52;;;;;;;5.32;1.25;;;19.50;99.90;;;;;;5033930;28;20025;-73
2023/09/25 02:56:18;;;;;;;8.10;1.50;;;19.60;99.90;;;;;;5033931;28;20040;-73
2023/09/25 02:58:46;;;;;;;6.13;1.10;;;19.60;99.90;;;;;;5033909;28;20025;-72
2023/09/25 03:01:12;;;;;;;7.97;1.50;;;19.60;99.90;;;;;;5033520;28;20037;-74
2023/09/25 03:03:40;;;;;;;11.07;1.40;;;19.70;99.90;;;;;;5034031;28;20026;-73
2023/09/25 03:06:07;;;;;;;6.75;1.23;;;19.60;99.90;;;;;;5033616;28;20032;-73
2023/09/25 03:08:33;;;;;;;5.95;1.42;;;19.70;99.90;;;;;;5033971;28;20096;-72
2023/09/25 03:10:59;;;;;;;4.93;1.73;;;19.70;99.90;;;;;;5032649;28;20048;-72
2023/09/25 03:13:26;;;;;;;12.20;1.38;;;19.70;99.90;;;;;;5034075;28;20025;-72
2023/09/25 03:15:52;;;;;;;7.72;1.80;;;19.80;99.90;;;;;;5034113;28;20053;-73
2023/09/25 03:18:18;;;;;;;5.75;1.10;;;20.00;99.90;;;;;;5034286;28;20104;-72
2023/09/25 03:20:44;;;;;;;6.28;1.20;;;20.00;99.90;;;;;;5034108;28;20033;-73
2023/09/25 03:23:10;;;;;;;6.43;1.33;;;20.00;99.90;;;;;;5033740;28;20525;-73
2023/09/25 03:25:37;;;;;;;5.82;1.27;;;20.10;99.90;;;;;;5034774;28;20029;-72
2023/09/25 03:28:04;;;;;;;4.95;1.27;;;20.20;99.90;;;;;;5034271;28;20029;-72
2023/09/25 03:30:30;;;;;;;7.28;1.20;;;20.20;99.90;;;;;;5032906;28;20037;-72
2023/09/25 03:32:56;;;;;;;;;;;20.20;99.90;;;;;;5033223;28;20033;-74
2023/09/25 03:35:23;;;;;;;5.90;1.35;;;20.30;99.90;;;;;;5034387;28;19947;-73
2023/09/25 03:37:49;;;;;;;7.00;1.08;;;20.30;99.90;;;;;;5034041;28;20129;-72
2023/09/25 03:40:15;;;;;;;5.90;1.13;;;20.20;99.90;;;;;;5034286;28;20142;-72
2023/09/25 03:42:42;;;;;;;6.32;1.52;;;20.10;99.90;;;;;;5034394;28;20429;-72
2023/09/25 03:45:09;;;;;;;9.80;1.50;;;20.00;99.90;;;;;;5033992;28;20033;-73
2023/09/25 03:47:37;;;;;;;2.80;0.98;;;20.00;99.90;;;;;;5033642;28;20051;-72
2023/09/25 03:50:04;;;;;;;7.03;1.30;;;20.00;99.90;;;;;;5031335;28;20029;-73
2023/09/25 03:52:30;;;;;;;6.32;1.25;;;19.90;99.90;;;;;;5033492;28;20056;-72
2023/09/25 03:54:57;;;;;;;5.78;0.90;;;20.00;99.90;;;;;;5033770;28;20025;-72
2023/09/25 03:57:23;;;;;;;5.22;1.02;;;19.90;99.90;;;;;;5033495;28;20101;-72
2023/09/25 03:59:50;;;;;;;5.70;1.20;;;20.00;99.90;;;;;;5033992;28;20348;-72
2023/09/25 04:02:16;;;;;;;9.13;1.40;;;20.00;99.90;;;;;;5033355;28;20143;-72
2023/09/25 04:04:42;;;;;;;8.32;1.10;;;20.00;99.90;;;;;;5033464;28;20426;-72
2023/09/25 04:07:08;;;;;;;5.22;1.60;;;20.00;99.90;;;;;;5033186;28;20029;-73
2023/09/25 04:09:34;;;;;;;7.97;1.17;;;20.00;99.90;;;;;;5031967;28;20060;-72
2023/09/25 04:12:01;;;;;;;5.80;0.90;;;20.10;99.90;;;;;;5033475;28;20037;-72
2023/09/25 04:14:31;;;;;;;5.35;1.10;;;20.10;99.90;;;;;;5033383;28;20029;-72
2023/09/25 04:16:57;;;;;;;7.57;1.13;;;20.10;99.90;;;;;;5033900;28;20040;-72
2023/09/25 04:19:23;;;;;;;4.70;1.23;;;20.10;99.90;;;;;;5032410;28;20131;-72
2023/09/25 04:21:52;;;;;;;6.43;1.15;;;20.10;99.90;;;;;;5033540;28;20033;-72
2023/09/25 04:24:19;;;;;;;5.38;1.27;;;20.10;99.90;;;;;;5032340;28;20029;-73
2023/09/25 04:26:46;;;;;;;7.20;1.05;;;20.20;99.90;;;;;;5032341;28;20033;-72
2023/09/25 04:29:17;;;;;;;8.00;1.35;;;20.10;99.90;;;;;;5033531;28;20470;-72
2023/09/25 04:31:48;;;;;;;8.38;1.55;;;20.10;99.90;;;;;;5034049;28;20037;-71
2023/09/25 04:34:15;;;;;;;3.17;1.10;;;20.10;99.90;;;;;;5033795;28;20100;-72
2023/09/25 04:36:41;;;;;;;;;;;20.00;99.90;;;;;;5032267;28;20026;-72
2023/09/25 04:39:10;;;;;;;4.43;1.23;;;19.90;99.90;;;;;;5033540;28;19905;-71
2023/09/25 04:41:36;;;;;;;6.47;1.40;;;20.00;99.90;;;;;;5033333;28;20030;-71
2023/09/25 04:44:04;;;;;;;7.22;1.30;;;20.00;99.90;;;;;;5033326;28;20029;-72
2023/09/25 04:46:31;;;;;;;7.70;1.58;;;20.00;99.90;;;;;;5033583;28;20466;-71
2023/09/25 04:48:57;;;;;;;;;;;20.10;99.90;;;;;;5033599;28;20049;-71
2023/09/25 04:51:23;;;;;;;7.57;1.23;;;20.00;99.90;;;;;;5033243;28;19912;-72
2023/09/25 04:53:49;;;;;;;5.75;1.10;;;19.90;99.90;;;;;;5032961;28;20068;-72
2023/09/25 04:56:22;;;;;;;6.85;1.35;;;19.80;99.90;;;;;;5033473;28;20029;-72
2023/09/25 04:58:49;;;;;;;4.95;1.00;;;19.70;99.90;;;;;;5033229;28;20030;-72
2023/09/25 05:01:15;;;;;;;6.60;1.13;;;19.70;99.90;;;;;;5032968;28;20398;-72
2023/09/25 05:03:41;;;;;;;7.90;1.02;;;19.80;99.90;;;;;;5033178;28;20311;-72
2023/09/25 05:06:10;;;;;;;5.43;1.10;;;19.80;99.90;;;;;;5031561;28;20029;-72
2023/09/25 05:08:38;;;;;;;5.55;1.25;;;19.80;99.90;;;;;;5032590;28;20045;-71
2023/09/25 05:11:08;;;;;;;8.05;1.52;;;19.90;99.90;;;;;;5032894;28;20029;-72
2023/09/25 05:13:34;;;;;;;7.10;1.63;;;20.00;99.90;;;;;;5032914;28;20469;-72
2023/09/25 05:16:03;;;;;;;10.05;1.30;;;20.00;99.90;;;;;;5032997;28;20040;-72
2023/09/25 05:18:30;;;;;;;6.57;1.67;;;20.20;99.90;;;;;;5032832;28;20033;-72
2023/09/25 05:20:58;;;;;;;5.43;1.20;;;20.20;99.90;;;;;;5032585;28;20385;-72
2023/09/25 05:23:25;;;;;;;5.55;1.30;;;20.30;99.90;;;;;;5032621;28;20113;-72
2023/09/25 05:25:52;;;;;;;5.15;1.17;;;20.40;99.90;;;;;;5032653;28;20028;-71
2023/09/25 05:28:18;;;;;;;11.80;1.52;;;20.50;99.90;;;;;;5032426;28;20029;-72
2023/09/25 05:30:44;;;;;;;12.05;1.65;;;20.60;99.90;;;;;;5032420;28;20037;-71
2023/09/25 05:33:10;;;;;;;7.22;1.20;;;20.70;99.90;;;;;;5032221;28;20037;-72
2023/09/25 05:35:36;;;;;;;5.10;1.35;;;20.80;99.90;;;;;;5031817;28;20059;-71
2023/09/25 05:38:03;;;;;;;6.85;1.30;;;21.00;99.90;;;;;;5031748;28;20065;-72
2023/09/25 05:40:29;;;;;;;7.75;1.00;;;21.60;99.90;;;;;;5032072;28;20042;-72
2023/09/25 05:42:55;;;;;;;7.45;1.17;;;22.60;99.90;;;;;;5031604;28;20049;-73
2023/09/25 05:45:21;;;;;;;5.63;1.13;;;23.50;99.90;;;;;;5031392;28;20519;-72
2023/09/25 05:47:47;;;;;;;7.63;1.02;;;24.30;99.90;;;;;;5029644;28;20045;-72
2023/09/25 05:50:14;;;;;;;7.30;1.50;;;25.40;99.90;;;;;;5029567;28;20488;-73
2023/09/25 05:52:40;;;;;;;5.70;1.30;;;25.90;99.90;;;;;;5029106;28;20061;-72
2023/09/25 05:55:08;;;;;;;6.30;1.45;;;26.40;99.90;;;;;;5030358;28;20036;-73
2023/09/25 05:57:35;;;;;;;9.88;1.60;;;26.90;99.90;;;;;;5030543;28;20053;-73
2023/09/25 06:00:03;;;;;;;5.60;1.38;;;27.40;99.90;;;;;;5030660;28;20053;-72
2023/09/25 06:02:33;;;;;;;12.18;1.60;;;27.80;99.90;;;;;;5031027;28;20103;-73
2023/09/25 06:04:59;;;;;;;11.30;2.55;;;28.20;99.90;;;;;;5030774;28;20060;-75
2023/09/25 06:07:25;;;;;;;8.32;1.70;;;29.90;99.90;;;;;;5030947;28;20083;-73
2023/09/25 06:09:51;;;;;;;;;;;31.10;99.90;;;;;;5031399;28;20022;-73
2023/09/25 06:12:18;;;;;;;10.98;2.58;;;31.50;99.90;;;;;;5030074;28;20310;-74
2023/09/25 06:14:44;;;;;;;8.63;2.75;;;31.60;99.90;;;;;;5033291;28;20028;-73
2023/09/25 06:17:11;;;;;;;9.23;1.20;;;31.70;99.90;;;;;;5034161;28;20112;-73
2023/09/25 06:19:37;;;;;;;4.38;1.02;;;31.10;99.90;;;;;;5033629;28;20025;-73
2023/09/25 06:22:03;;;;;;;6.43;1.20;;;30.70;99.90;;;;;;5035396;28;20037;-73
2023/09/25 06:24:30;;;;;;;6.38;1.13;;;32.40;99.90;;;;;;5035436;28;20029;-73
2023/09/25 06:26:56;;;;;;;6.82;1.25;;;32.70;99.90;;;;;;5035068;28;20096;-73
2023/09/25 06:29:22;;;;;;;6.03;1.33;;;31.00;99.90;;;;;;5035310;28;20030;-74
2023/09/25 06:31:48;;;;;;;6.63;1.20;;;30.90;99.90;;;;;;5033870;28;20021;-72
2023/09/25 06:34:15;;;;;;;6.07;1.20;;;30.80;99.90;;;;;;5035362;28;20109;-75
2023/09/25 06:36:41;;;;;;;6.20;1.20;;;30.70;99.90;;;;;;5033324;28;20116;-73
2023/09/25 06:39:09;;;;;;;7.43;1.50;;;31.60;99.90;;;;;;5034743;28;20022;-73
2023/09/25 06:41:37;;;;;;;7.93;1.33;;;32.60;99.90;;;;;;5033283;28;20029;-71
2023/09/25 06:44:05;;;;;;;6.53;1.20;;;33.80;99.90;;;;;;5034796;28;20033;-73
2023/09/25 06:46:32;;;;;;;7.10;1.50;;;34.40;99.90;;;;;;5034370;28;20040;-73
2023/09/25 06:48:59;;;;;;;5.97;1.50;;;34.70;99.90;;;;;;5034417;28;20234;-74
2023/09/25 06:51:26;;;;;;;5.95;1.38;;;33.30;99.90;;;;;;5034523;28;20531;-73
2023/09/25 06:53:53;;;;;;;5.30;1.30;;;32.50;99.90;;;;;;5034210;28;20393;-72
2023/09/25 06:56:19;;;;;;;11.15;1.63;;;31.30;99.90;;;;;;5034582;28;20033;-74
2023/09/25 06:58:45;;;;;;;7.57;1.17;;;31.50;99.90;;;;;;5034496;28;20025;-73
2023/09/25 07:01:12;;;;;;;8.30;1.55;;;31.30;99.90;;;;;;5034805;28;20053;-73
2023/09/25 07:03:38;;;;;;;8.55;1.27;;;31.90;99.90;;;;;;5034149;28;20028;-73
2023/09/25 07:06:04;;;;;;;4.80;1.20;;;33.50;99.90;;;;;;5034031;28;20025;-73
2023/09/25 07:08:32;;;;;;;8.27;1.52;;;31.90;99.90;;;;;;5032391;28;20029;-72
2023/09/25 07:10:58;;;;;;;7.50;1.45;;;32.20;99.90;;;;;;5034263;28;20465;-74
2023/09/25 07:13:24;;;;;;;5.82;1.17;;;32.50;99.90;;;;;;5034179;28;20138;-73
2023/09/25 07:15:51;;;;;;;6.93;1.40;;;33.90;99.90;;;;;;5032485;28;20052;-73
2023/09/25 07:18:17;;;;;;;6.45;1.40;;;34.30;99.90;;;;;;5034453;28;20088;-74
2023/09/25 07:20:45;;;;;;;4.97;1.15;;;34.70;99.90;;;;;;5034217;28;20026;-74
2023/09/25 07:23:12;;;;;;;5.05;0.98;;;34.50;99.90;;;;;;5032072;28;20033;-73
2023/09/25 07:25:38;;;;;;;7.43;1.20;;;33.70;99.90;;;;;;5034179;28;20026;-73
2023/09/25 07:28:04;;;;;;;4.50;1.20;;;33.40;99.90;;;;;;5034118;28;20438;-73
2023/09/25 07:30:31;;;;;;;5.90;1.00;;;32.60;99.90;;;;;;5033736;28;20025;-73
2023/09/25 07:32:57;;;;;;;3.53;1.10;;;29.60;99.90;;;;;;5034193;28;20501;-73
2023/09/25 07:35:23;;;;;;;;;;;28.90;99.90;;;;;;5034550;28;20013;-74
2023/09/25 07:37:49;;;;;;;4.78;1.00;;;28.70;99.90;;;;;;5033249;28;20315;-73
2023/09/25 07:40:18;;;;;;;;;;;28.90;99.90;;;;;;5033968;28;20026;-74
2023/09/25 07:42:44;;;;;;;4.95;1.13;;;28.90;99.90;;;;;;5033430;28;19916;-73
2023/09/25 07:45:22;;;;;;;;;;;29.30;99.90;;;;;;5033812;28;20040;-72
2023/09/25 07:47:48;;;;;;;5.22;1.55;;;28.60;99.90;;;;;;5032912;28;19917;-73
2023/09/25 07:50:14;;;;;;;;;;;29.00;99.90;;;;;;5033794;28;20021;-73
2023/09/25 07:52:42;;;;;;;7.93;1.40;;;29.50;99.90;;;;;;5032561;28;19916;-72
2023/09/25 07:55:11;;;;;;;8.52;1.20;;;29.70;99.90;;;;;;5032909;28;20091;-74
2023/09/25 07:57:42;;;;;;;8.20;1.30;;;30.00;99.90;;;;;;5033084;28;20021;-73
2023/09/25 08:00:39;;;;;;;6.50;2.53;;;29.90;99.90;;;;;;5032924;28;20057;-74
2023/09/25 08:02:57;;;;;;;6.45;1.05;;;29.40;99.90;;;;;;5032350;28;20052;-74
2023/09/25 08:05:23;;;;;;;6.80;0.98;;;28.70;99.90;;;;;;5032690;28;20416;-73
2023/09/25 08:07:50;;;;;;;;;;;28.00;99.90;;;;;;5033070;28;20044;-72
2023/09/25 08:10:20;;;;;;;10.18;1.10;;;28.20;99.90;;;;;;5031208;28;19905;-74
2023/09/25 08:12:47;;;;;;;6.97;1.42;;;28.50;99.90;;;;;;5032968;28;20393;-73
2023/09/25 08:15:14;;;;;;;5.10;1.25;;;28.80;99.90;;;;;;5032532;28;20079;-73
2023/09/25 08:17:44;;;;;;;3.38;1.02;;;28.70;99.90;;;;;;5032857;28;20040;-73
2023/09/25 08:20:20;;;;;;;11.60;1.40;;;28.80;99.90;;;;;;5032775;28;20040;-73
2023/09/25 08:22:48;;;;;;;6.45;1.02;;;28.90;99.90;;;;;;5032726;28;20025;-73
2023/09/25 08:25:14;;;;;;;9.85;1.60;;;27.80;99.90;;;;;;5033322;28;20022;-72
2023/09/25 08:27:41;;;;;;;6.03;1.17;;;27.90;99.90;;;;;;5032697;28;20066;-72
2023/09/25 08:30:08;;;;;;;7.20;1.33;;;27.90;99.90;;;;;;5032730;28;20458;-72
2023/09/25 08:32:35;;;;;;;6.70;1.08;;;27.60;99.90;;;;;;5032612;28;20026;-74
2023/09/25 08:35:03;;;;;;;9.32;1.27;;;27.50;99.90;;;;;;5032761;28;20025;-73
2023/09/25 08:37:29;;;;;;;5.57;1.00;;;27.70;99.90;;;;;;5031973;28;20025;-73
2023/09/25 08:39:56;;;;;;;;;;;28.10;99.90;;;;;;5033351;28;20136;-73
2023/09/25 08:42:24;;;;;;;4.25;0.88;;;28.20;99.90;;;;;;5032617;28;19913;-73
2023/09/25 08:44:52;;;;;;;7.00;1.35;;;27.10;99.90;;;;;;5032531;28;20100;-73
2023/09/25 08:47:20;;;;;;;8.15;1.10;;;27.20;99.90;;;;;;5030836;28;20584;-73
2023/09/25 08:49:49;;;;;;;4.95;1.08;;;27.70;99.90;;;;;;5032182;28;20041;-72
2023/09/25 08:52:17;;;;;;;9.07;1.17;;;28.00;99.90;;;;;;5031433;28;20021;-74
2023/09/25 08:54:43;;;;;;;7.90;1.10;;;28.10;99.90;;;;;;5032227;28;20047;-74
2023/09/25 08:57:11;;;;;;;4.50;1.05;;;27.60;99.90;;;;;;5031967;28;20068;-73
2023/09/25 08:59:38;;;;;;;6.43;1.13;;;27.80;99.90;;;;;;5030123;28;20091;-74
2023/09/25 09:02:08;;;;;;;5.78;1.02;;;27.60;99.90;;;;;;5031618;28;20139;-73
2023/09/25 09:04:36;;;;;;;8.40;1.10;;;27.50;99.90;;;;;;5030102;28;20026;-74
2023/09/25 09:07:04;;;;;;;6.55;1.40;;;27.50;99.90;;;;;;5031151;28;20032;-74
2023/09/25 09:09:31;;;;;;;7.75;1.20;;;27.50;99.90;;;;;;5031982;28;20354;-74
2023/09/25 09:11:58;;;;;;;6.10;1.27;;;27.30;99.90;;;;;;5031614;28;20068;-72
2023/09/25 09:14:51;;;;;;;3.58;1.20;;;26.90;99.90;;;;;;5031189;28;20033;-72
2023/09/25 09:17:17;;;;;;;3.25;1.15;;;27.40;99.90;;;;;;5028757;28;20474;-72
2023/09/25 09:19:46;;;;;;;12.07;1.60;;;27.40;99.90;;;;;;5031164;28;20026;-72
2023/09/25 09:22:15;;;;;;;5.82;1.77;;;27.10;99.90;;;;;;5031180;28;20112;-72
2023/09/25 09:24:43;;;;;;;4.65;1.17;;;27.10;99.90;;;;;;5031293;28;20104;-71
2023/09/25 09:27:09;;;;;;;6.68;1.55;;;26.90;99.90;;;;;;5031160;28;20029;-72
2023/09/25 09:29:42;;;;;;;8.85;1.75;;;27.10;99.90;;;;;;5029363;28;20422;-74
2023/09/25 09:32:09;;;;;;;11.23;1.60;;;27.20;99.90;;;;;;5031280;28;20060;-73
2023/09/25 09:34:38;;;;;;;7.25;1.50;;;27.30;99.90;;;;;;5031475;28;20025;-73
2023/09/25 09:37:10;;;;;;;7.93;1.38;;;27.30;99.90;;;;;;5031228;28;20040;-74
2023/09/25 09:39:37;;;;;;;4.07;1.30;;;27.50;99.90;;;;;;5031262;28;20104;-74
2023/09/25 09:42:05;;;;;;;6.40;1.27;;;27.40;99.90;;;;;;5031026;28;20048;-74
2023/09/25 09:44:35;;;;;;;18.83;2.03;;;27.10;99.90;;;;;;5030974;28;20034;-73
2023/09/25 09:47:06;;;;;;;5.75;1.10;;;27.00;99.90;;;;;;5030807;28;20045;-73
2023/09/25 09:49:37;;;;;;;4.20;1.20;;;27.50;99.90;;;;;;5034183;28;20017;-72
2023/09/25 09:52:04;;;;;;;4.22;1.10;;;27.80;99.90;;;;;;5033610;28;20101;-73
2023/09/25 09:54:42;;;;;;;6.47;1.40;;;28.10;99.90;;;;;;5033397;28;20029;-74
2023/09/25 09:57:10;;;;;;;5.18;1.10;;;27.30;99.90;;;;;;5033454;28;20052;-73
2023/09/25 09:59:37;;;;;;;6.18;1.33;;;27.10;99.90;;;;;;5035207;28;20112;-73
2023/09/25 10:02:04;;;;;;;24.88;2.40;;;26.90;99.90;;;;;;5034784;28;20049;-73
2023/09/25 10:04:31;;;;;;;5.28;1.38;;;26.80;99.90;;;;;;5034959;28;20095;-73
2023/09/25 10:07:04;;;;;;;8.95;1.20;;;26.90;99.90;;;;;;5033358;28;20039;-73
2023/09/25 10:09:31;;;;;;;6.50;1.60;;;26.90;99.90;;;;;;5034325;28;20039;-74
2023/09/25 10:12:00;;;;;;;11.73;1.70;;;26.70;99.90;;;;;;5034859;28;20037;-73
2023/09/25 10:14:30;;;;;;;5.65;1.42;;;26.80;99.90;;;;;;5034488;28;20081;-73
2023/09/25 10:17:06;;;;;;;4.78;1.20;;;26.90;99.90;;;;;;5035043;28;20029;-73
2023/09/25 10:19:41;;;;;;;5.25;1.38;;;26.30;99.90;;;;;;5032314;28;20021;-73
2023/09/25 10:22:12;;;;;;;7.00;1.37;;;26.50;99.90;;;;;;5034121;28;20143;-73
2023/09/25 10:24:41;;;;;;;10.13;1.23;;;26.40;99.90;;;;;;5032988;28;20276;-73
2023/09/25 10:27:10;;;;;;;6.07;1.27;;;26.40;99.90;;;;;;5034414;28;20061;-73
2023/09/25 10:29:37;;;;;;;6.97;1.60;;;26.80;99.90;;;;;;5034165;28;20458;-72
2023/09/25 10:32:05;;;;;;;6.28;1.27;;;27.10;99.90;;;;;;5032994;28;20026;-72
2023/09/25 10:34:32;;;;;;;4.53;1.30;;;27.40;99.90;;;;;;5034377;28;20036;-74
2023/09/25 10:37:01;;;;;;;8.27;2.17;;;27.70;99.90;;;;;;5033999;28;20026;-73
2023/09/25 10:39:27;;;;;;;6.38;1.52;;;27.80;99.90;;;;;;5033973;28;20516;-75
2023/09/25 10:42:08;;;;;;;3.28;1.42;;;27.80;99.90;;;;;;5032643;28;20128;-72
2023/09/25 10:44:36;;;;;;;5.55;1.33;;;28.10;99.90;;;;;;5034255;28;20049;-73
2023/09/25 10:47:11;;;;;;;4.72;1.20;;;28.10;99.90;;;;;;5033599;28;20041;-74
2023/09/25 10:49:38;;;;;;;4.82;0.93;;;27.80;99.90;;;;;;5033869;28;20049;-74
2023/09/25 10:52:04;;;;;;;;;;;27.70;99.40;;;;;;5034323;28;20072;-72
2023/09/25 10:54:31;;;;;;;6.30;1.35;;;27.40;99.90;;;;;;5034225;28;19928;-73
2023/09/25 10:57:01;;;;;;;6.47;1.25;;;28.00;99.60;;;;;;5033990;28;20041;-73
2023/09/25 10:59:28;;;;;;;8.23;1.85;;;28.00;99.90;;;;;;5032418;28;20033;-72
2023/09/25 11:01:54;;;;;;;4.43;1.83;;;28.20;99.90;;;;;;5033396;28;20041;-73
2023/09/25 11:04:20;;;;;;;4.05;1.25;;;28.30;99.90;;;;;;5033821;28;20017;-73
2023/09/25 11:06:46;;;;;;;;;;;28.00;99.90;;;;;;5034265;28;20478;-73
2023/09/25 11:09:17;;;;;;;9.48;1.98;;;28.40;99.90;;;;;;5032534;28;19948;-75
2023/09/25 11:11:46;;;;;;;4.25;1.38;;;28.60;99.90;;;;;;5034088;28;20385;-73
2023/09/25 11:14:13;;;;;;;16.35;1.88;;;28.60;99.90;;;;;;5033988;28;20025;-74
2023/09/25 11:16:40;;;;;;;16.05;2.33;;;28.80;99.90;;;;;;5034113;28;20057;-74
2023/09/25 11:19:14;;;;;;;12.48;1.65;;;28.60;99.90;;;;;;5033891;28;20401;-73
2023/09/25 11:21:44;;;;;;;6.65;1.55;;;28.50;99.90;;;;;;5032467;28;20059;-72
2023/09/25 11:24:11;;;;;;;5.95;1.35;;;28.70;99.90;;;;;;5033852;28;20431;-73
2023/09/25 11:26:38;;;;;;;10.20;1.80;;;29.10;99.90;;;;;;5033802;28;20025;-73
2023/09/25 11:29:11;;;;;;;6.20;1.38;;;28.70;99.90;;;;;;5034179;28;20053;-73
2023/09/25 11:31:39;;;;;;;6.18;1.20;;;28.90;99.90;;;;;;5033664;28;20036;-73
2023/09/25 11:34:09;;;;;;;43.72;3.13;;;29.10;99.90;;;;;;5033266;28;20419;-73
2023/09/25 11:36:43;;;;;;;11.15;1.42;;;29.10;99.90;;;;;;5033333;28;20030;-73
2023/09/25 11:39:15;;;;;;;9.48;1.35;;;29.30;99.90;;;;;;5033250;28;20029;-73
2023/09/25 11:41:41;;;;;;;61.28;3.50;;;29.40;98.30;;;;;;5033075;28;20343;-73
2023/09/25 11:44:09;;;;;;;;;;;29.00;98.00;;;;;;5033721;28;20033;-73
2023/09/25 11:46:35;;;;;;;6.60;1.27;;;28.70;98.30;;;;;;5032975;28;20376;-74
2023/09/25 11:49:01;;;;;;;4.40;1.35;;;28.20;98.70;;;;;;5031713;28;20058;-74
2023/09/25 11:51:28;;;;;;;4.45;1.25;;;28.10;98.90;;;;;;5033645;28;20093;-74
2023/09/25 11:53:54;;;;;;;3.92;1.33;;;28.00;99.30;;;;;;5031137;28;20505;-73
2023/09/25 11:56:21;;;;;;;;;;;28.00;99.80;;;;;;5033060;28;20029;-72
2023/09/25 11:58:47;;;;;;;9.57;1.25;;;28.10;99.90;;;;;;5033260;28;20000;-73
2023/09/25 12:01:13;;;;;;;3.42;1.10;;;28.00;99.90;;;;;;5032975;28;20045;-73
2023/09/25 12:03:40;;;;;;;14.75;1.85;;;28.10;99.90;;;;;;5033527;28;20021;-73
2023/09/25 12:06:06;;;;;;;;;;;28.40;99.90;;;;;;5034032;28;20449;-73
2023/09/25 12:08:32;;;;;;;;;;;28.40;99.90;;;;;;5034028;28;19916;-73
2023/09/25 12:10:59;;;;;;;6.05;1.50;;;28.50;99.90;;;;;;5033006;28;20378;-73
2023/09/25 12:13:26;;;;;;;9.93;1.23;;;28.60;99.90;;;;;;5033466;28;20482;-74
2023/09/25 12:15:51;;;;;;;;;;;28.80;99.90;;;;;;5034020;28;20037;-72
2023/09/25 12:18:18;;;;;;;14.05;2.08;;;28.90;99.90;;;;;;5032579;28;19959;-74
2023/09/25 12:20:44;;;;;;;15.32;1.60;;;28.60;99.90;;;;;;5034385;28;20112;-73
2023/09/25 12:23:10;;;;;;;7.88;1.50;;;28.50;99.90;;;;;;5033973;28;20072;-71
2023/09/25 12:25:37;;;;;;;13.07;1.40;;;28.50;99.90;;;;;;5034031;28;20053;-72
2023/09/25 12:28:04;;;;;;;;;;;28.40;99.90;;;;;;5032860;28;20131;-73
2023/09/25 12:30:30;;;;;;;5.05;1.42;;;28.50;99.90;;;;;;5033525;28;19905;-74
2023/09/25 12:32:56;;;;;;;7.95;2.00;;;28.30;99.90;;;;;;5032273;28;20080;-73
2023/09/25 12:35:22;;;;;;;18.85;1.73;;;28.20;99.90;;;;;;5033554;28;20036;-73
2023/09/25 12:37:50;;;;;;;78.80;4.57;;;28.30;99.90;;;;;;5033469;28;20056;-73
2023/09/25 12:40:16;;;;;;;37.00;2.42;;;28.50;99.90;;;;;;5033263;28;20033;-73
2023/09/25 12:42:44;;;;;;;18.75;2.83;;;28.50;99.90;;;;;;5033289;28;20041;-73
2023/09/25 12:45:13;;;;;;;11.52;2.42;;;28.50;99.90;;;;;;5033218;28;20040;-72
2023/09/25 12:47:40;;;;;;;9.75;1.60;;;28.30;99.90;;;;;;5032930;28;20485;-73
2023/09/25 12:50:06;;;;;;;24.08;1.67;;;28.20;99.90;;;;;;5033215;28;20017;-72
2023/09/25 12:52:33;;;;;;;17.23;1.75;;;27.90;99.90;;;;;;5032842;28;20018;-72